Time;durP1;ratioP1;P1;durP2;ratioP2;P2;SDS_P1;SDS_P2;PMS_P1;PMS_P2;Temp;Humidity;BMP_temperature;BMP_pressure;BME280_temperature;BME280_humidity;BME280_pressure;Samples;Min_cycle;Max_cycle;Signal;HPM_P1;HPM_P2
2022/09/10 00:00:24;;;;;;;10.30;6.32;;;;;;;18.97;95.36;99592.66;4450797;32;33278;-84
2022/09/10 00:02:52;;;;;;;11.80;6.30;;;;;;;19.13;94.38;99598.00;4451381;32;32748;-81
2022/09/10 00:05:20;;;;;;;10.45;5.60;;;;;;;19.71;90.27;99595.69;4452786;32;34627;-82
2022/09/10 00:07:47;;;;;;;13.38;5.68;;;;;;;20.85;83.21;99593.38;4451687;32;33763;-83
2022/09/10 00:10:17;;;;;;;10.15;5.43;;;;;;;20.77;82.39;99587.25;4439923;32;34371;-84
2022/09/10 00:12:47;;;;;;;10.45;6.28;;;;;;;21.04;81.54;99593.38;4455178;32;33902;-84
2022/09/10 00:15:14;;;;;;;10.75;5.75;;;;;;;21.15;80.79;99586.31;4452229;32;34521;-85
2022/09/10 00:17:42;;;;;;;9.27;6.28;;;;;;;21.23;80.87;99584.56;4454752;32;33913;-87
2022/09/10 00:20:10;;;;;;;9.93;5.80;;;;;;;21.23;80.60;99574.03;4454594;32;34094;-86
2022/09/10 00:22:37;;;;;;;10.90;5.72;;;;;;;20.72;84.03;99581.09;4453894;32;34446;-87
2022/09/10 00:25:05;;;;;;;9.68;5.40;;;;;;;20.70;83.19;99582.84;4455069;32;34811;-83
2022/09/10 00:27:35;;;;;;;7.65;4.70;;;;;;;20.58;82.36;99574.03;4455218;32;34112;-86
2022/09/10 00:30:02;;;;;;;9.65;4.50;;;;;;;21.07;79.61;99570.50;4454928;32;33350;-84
2022/09/10 00:32:30;;;;;;;8.18;4.45;;;;;;;21.43;77.29;99571.31;4454190;32;33675;-85
2022/09/10 00:35:00;;;;;;;6.97;4.68;;;;;;;21.09;78.09;99565.25;4454005;32;33963;-84
2022/09/10 00:37:27;;;;;;;8.20;4.95;;;;;;;20.94;78.62;99564.41;4454914;32;33951;-83
2022/09/10 00:39:55;;;;;;;8.07;4.97;;;;;;;20.24;82.78;99559.94;4455407;32;33352;-82
2022/09/10 00:42:24;;;;;;;10.07;5.00;;;;;;;19.83;86.46;99566.84;4455165;32;34305;-84
2022/09/10 00:45:00;;;;;;;7.28;4.57;;;;;;;19.20;89.77;99569.19;4453774;32;33851;-82
2022/09/10 00:47:37;;;;;;;7.25;4.68;;;;;;;19.20;89.00;99569.19;4453473;32;32298;-83
2022/09/10 00:50:20;;;;;;;6.97;4.82;;;;;;;19.57;87.75;99568.50;4454684;32;33275;-84
2022/09/10 00:52:50;;;;;;;7.37;4.60;;;;;;;18.85;90.36;99558.41;4453884;32;34084;-84
2022/09/10 00:55:18;;;;;;;7.43;4.57;;;;;;;19.67;86.09;99559.78;4440763;32;32424;-80
2022/09/10 00:57:48;;;;;;;6.03;4.25;;;;;;;20.76;78.99;99553.88;4453871;32;33752;-83
2022/09/10 01:00:16;;;;;;;8.38;4.50;;;;;;;20.83;78.22;99553.00;4454843;32;35207;-84
2022/09/10 01:02:43;;;;;;;8.10;4.53;;;;;;;20.07;82.14;99559.94;4453302;32;34524;-84
2022/09/10 01:05:12;;;;;;;8.55;4.60;;;;;;;19.55;86.17;99557.09;4454439;32;33949;-84
2022/09/10 01:07:40;;;;;;;7.40;4.68;;;;;;;19.20;88.42;99553.41;4453765;32;34105;-82
2022/09/10 01:10:12;;;;;;;11.85;4.75;;;;;;;19.24;88.50;99555.19;4454663;32;33970;-82
2022/09/10 01:13:08;;;;;;;10.20;5.03;;;;;;;20.34;81.46;99552.94;4454878;32;33610;-81
2022/09/10 01:15:53;;;;;;;8.13;4.40;;;;;;;19.56;85.12;99556.22;4452233;32;34785;-82
2022/09/10 01:18:51;;;;;;;7.05;4.55;;;;;;;19.24;86.95;99549.06;4448705;32;33805;-82
2022/09/10 01:21:25;;;;;;;8.48;4.22;;;;;;;18.89;87.55;99540.94;4452723;32;33144;-86
2022/09/10 01:23:59;;;;;;;8.02;4.12;;;;;;;19.08;86.87;99548.06;4439772;32;33076;-83
2022/09/10 01:26:53;;;;;;;7.75;4.05;;;;;;;19.68;83.23;99545.75;4453504;32;33059;-84
2022/09/10 01:29:21;;;;;;;6.75;3.67;;;;;;;20.03;80.89;99534.53;4450619;32;33681;-84
2022/09/10 01:31:57;;;;;;;11.02;4.05;;;;;;;20.30;78.04;99528.44;4454925;32;33848;-84
2022/09/10 01:34:35;;;;;;;6.62;3.53;;;;;;;18.96;85.73;99517.38;4450300;32;33764;-84
2022/09/10 01:37:08;;;;;;;9.18;3.87;;;;;;;19.68;81.46;99511.59;4452161;32;33507;-86
2022/09/10 01:39:36;;;;;;;6.32;3.35;;;;;;;20.74;75.83;99505.63;4441019;32;33172;-86
2022/09/10 01:42:05;;;;;;;6.43;3.97;;;;;;;20.94;73.96;99501.22;4452990;32;33164;-86
2022/09/10 01:44:48;;;;;;;6.35;3.40;;;;;;;21.17;72.11;99500.25;4453573;32;34423;-84
2022/09/10 01:47:34;;;;;;;6.15;3.78;;;;;;;21.02;71.96;99502.06;4450296;32;33824;-82
2022/09/10 01:50:28;;;;;;;7.10;4.22;;;;;;;19.37;81.05;99489.59;4454260;32;33405;-84
2022/09/10 01:53:38;;;;;;;6.65;3.85;;;;;;;18.80;86.04;99505.03;4451433;32;34063;-81
2022/09/10 01:56:24;;;;;;;7.12;3.87;;;;;;;18.45;88.79;99518.75;4394161;32;32654;-83
2022/09/10 01:58:56;;;;;;;7.87;4.20;;;;;;;18.19;90.62;99510.63;4452361;32;34518;-85
2022/09/10 02:01:44;;;;;;;8.88;4.25;;;;;;;18.19;90.56;99495.78;4437877;32;33364;-87
2022/09/10 02:04:14;;;;;;;8.50;4.53;;;;;;;18.42;89.72;99476.75;4440466;32;33696;-81
2022/09/10 02:06:44;;;;;;;7.62;4.62;;;;;;;18.21;90.13;99466.97;4448166;32;34130;-83
2022/09/10 02:09:13;;;;;;;6.43;3.83;;;;;;;19.30;83.49;99470.31;4452782;32;34600;-85
2022/09/10 02:11:52;;;;;;;9.18;3.70;;;;;;;18.48;87.33;99476.78;4452625;32;33657;-85
2022/09/10 02:14:21;;;;;;;6.78;3.95;;;;;;;18.89;84.81;99481.50;4453434;32;33475;-83
2022/09/10 02:16:57;;;;;;;5.40;3.70;;;;;;;18.32;86.85;99490.66;4453326;32;33563;-84
2022/09/10 02:19:26;;;;;;;6.85;3.47;;;;;;;19.52;80.72;99494.03;4452759;32;33664;-86
2022/09/10 02:21:56;;;;;;;5.87;3.20;;;;;;;19.87;77.57;99490.66;4453783;32;34296;-87
2022/09/10 02:24:23;;;;;;;6.07;3.53;;;;;;;19.88;77.29;99495.06;4451679;32;34057;-86
2022/09/10 02:26:51;;;;;;;6.00;3.30;;;;;;;19.57;78.68;99494.94;4438349;32;31100;-82
2022/09/10 02:29:18;;;;;;;5.62;3.17;;;;;;;19.75;76.58;99496.78;4453116;32;33556;-85
2022/09/10 02:31:46;;;;;;;4.80;2.60;;;;;;;19.38;77.84;99486.97;4451524;32;33893;-84
2022/09/10 02:34:14;;;;;;;4.82;2.42;;;;;;;18.71;79.31;99476.94;4452908;32;33154;-82
2022/09/10 02:36:45;;;;;;;5.03;2.90;;;;;;;18.78;79.74;99475.25;4454253;32;33456;-86
2022/09/10 02:39:13;;;;;;;5.68;2.50;;;;;;;18.93;79.03;99475.37;4437330;32;32408;-82
2022/09/10 02:41:41;;;;;;;5.35;2.78;;;;;;;18.01;83.38;99475.53;4446217;32;33503;-80
2022/09/10 02:44:08;;;;;;;4.80;2.53;;;;;;;19.04;78.73;99478.97;4449644;32;33132;-81
2022/09/10 02:46:37;;;;;;;5.22;2.37;;;;;;;19.07;77.77;99469.34;4449090;32;34547;-84
2022/09/10 02:49:05;;;;;;;6.60;2.80;;;;;;;19.11;77.18;99474.59;4452834;32;33935;-82
2022/09/10 02:51:35;;;;;;;8.02;2.55;;;;;;;19.30;77.06;99474.69;4453633;32;32595;-85
2022/09/10 02:54:03;;;;;;;4.25;2.28;;;;;;;19.10;76.77;99471.97;4453377;32;34318;-81
2022/09/10 02:56:31;;;;;;;5.75;2.47;;;;;;;19.37;76.06;99473.84;4451118;32;33483;-83
2022/09/10 02:58:59;;;;;;;6.37;2.40;;;;;;;19.63;74.94;99487.06;4452022;32;33292;-83
2022/09/10 03:01:27;;;;;;;6.03;2.45;;;;;;;19.43;75.05;99477.38;4451808;32;33116;-82
2022/09/10 03:03:57;;;;;;;7.37;2.55;;;;;;;19.19;76.17;99472.00;4452499;32;31838;-85
2022/09/10 03:06:26;;;;;;;6.28;2.20;;;;;;;19.40;75.24;99482.59;4451017;32;34643;-85
2022/09/10 03:08:56;;;;;;;5.45;2.22;;;;;;;18.65;79.18;99484.78;4435811;32;33331;-85
2022/09/10 03:11:26;;;;;;;4.95;2.20;;;;;;;19.58;75.17;99480.91;4452360;32;32161;-87
2022/09/10 03:13:54;;;;;;;5.00;1.92;;;;;;;19.96;72.43;99478.41;4452380;32;33809;-84
2022/09/10 03:16:23;;;;;;;5.55;2.40;;;;;;;19.85;72.67;99482.75;4451651;32;33284;-85
2022/09/10 03:18:51;;;;;;;4.85;2.20;;;;;;;19.58;72.88;99476.53;4452352;32;34603;-84
2022/09/10 03:21:20;;;;;;;4.20;2.10;;;;;;;19.17;74.83;99479.00;4452085;32;34502;-83
2022/09/10 03:23:49;;;;;;;6.10;2.03;;;;;;;17.80;81.59;99486.62;4451070;32;33419;-85
2022/09/10 03:26:19;;;;;;;6.05;2.20;;;;;;;18.80;78.25;99478.81;4418787;32;32569;-84
2022/09/10 03:28:47;;;;;;;6.03;2.00;;;;;;;18.78;77.22;99472.66;4450826;32;33891;-83
2022/09/10 03:31:15;;;;;;;4.50;1.65;;;;;;;19.42;74.28;99480.84;4433814;32;33085;-80
2022/09/10 03:33:44;;;;;;;3.15;1.65;;;;;;;19.42;73.76;99480.84;4451442;32;33657;-83
2022/09/10 03:36:12;;;;;;;2.97;1.73;;;;;;;19.31;73.35;99471.19;4451656;32;33784;-81
2022/09/10 03:38:40;;;;;;;4.55;1.48;;;;;;;19.04;74.09;99467.56;4439181;32;32152;-84
2022/09/10 03:41:08;;;;;;;2.87;1.20;;;;;;;19.01;73.72;99468.44;4437209;32;33964;-81
2022/09/10 03:43:36;;;;;;;3.15;1.20;;;;;;;18.83;73.33;99463.06;4452597;32;35267;-86
2022/09/10 03:46:04;;;;;;;3.72;1.20;;;;;;;18.61;74.60;99472.53;4453269;32;34058;-86
2022/09/10 03:48:34;;;;;;;1.92;1.05;;;;;;;18.92;73.22;99471.00;4452665;32;33601;-86
2022/09/10 03:51:01;;;;;;;5.43;1.02;;;;;;;18.42;74.61;99471.50;4451477;32;33479;-85
2022/09/10 03:53:29;;;;;;;3.08;1.00;;;;;;;18.13;76.34;99473.88;4452654;32;34047;-81
2022/09/10 03:55:57;;;;;;;2.45;1.05;;;;;;;18.62;73.46;99469.91;4450872;32;34674;-83
2022/09/10 03:58:25;;;;;;;4.35;1.37;;;;;;;18.36;73.09;99467.09;4453806;32;33521;-84
2022/09/10 04:00:53;;;;;;;2.58;1.02;;;;;;;17.60;79.81;99482.94;4450845;32;34376;-83
2022/09/10 04:03:21;;;;;;;7.40;1.83;;;;;;;18.46;76.63;99470.66;4451476;32;33421;-82
2022/09/10 04:05:50;;;;;;;3.67;1.23;;;;;;;19.00;74.45;99471.03;4454250;32;33289;-84
2022/09/10 04:08:19;;;;;;;5.62;1.27;;;;;;;19.06;73.31;99476.31;4453214;32;33928;-84
2022/09/10 04:10:47;;;;;;;3.33;1.10;;;;;;;17.37;82.04;99478.31;4453088;32;34060;-84
2022/09/10 04:13:15;;;;;;;4.85;1.37;;;;;;;17.06;83.91;99483.16;4451740;32;34159;-79
2022/09/10 04:15:45;;;;;;;6.25;1.20;;;;;;;17.20;83.12;99487.69;4449457;32;34428;-84
2022/09/10 04:18:13;;;;;;;3.20;0.90;;;;;;;17.49;80.63;99496.78;4451317;32;33080;-82
2022/09/10 04:20:45;;;;;;;4.47;1.35;;;;;;;17.21;82.39;99494.66;4452398;32;34464;-83
2022/09/10 04:23:15;;;;;;;1.62;0.68;;;;;;;17.23;82.02;99487.69;4426102;32;32411;-82
2022/09/10 04:25:43;;;;;;;3.12;1.02;;;;;;;17.10;82.71;99492.78;4451526;32;33077;-82
2022/09/10 04:28:11;;;;;;;3.65;1.00;;;;;;;16.98;82.79;99503.09;4450218;32;33719;-82
2022/09/10 04:30:39;;;;;;;3.75;0.80;;;;;;;17.60;80.82;99506.50;4451561;32;34007;-85
2022/09/10 04:33:07;;;;;;;2.97;0.82;;;;;;;17.08;81.96;99507.59;4452652;32;33637;-82
2022/09/10 04:35:34;;;;;;;2.12;0.75;;;;;;;17.10;82.23;99516.34;4452771;32;33805;-85
2022/09/10 04:38:03;;;;;;;4.07;0.88;;;;;;;17.43;80.62;99515.03;4451046;32;33095;-81
2022/09/10 04:40:30;;;;;;;2.65;0.73;;;;;;;17.93;78.83;99503.41;4452435;32;34459;-81
2022/09/10 04:42:58;;;;;;;1.87;0.85;;;;;;;18.47;75.66;99491.66;4451000;32;33304;-84
2022/09/10 04:45:25;;;;;;;2.85;0.80;;;;;;;18.66;73.99;99486.56;4451558;32;33783;-82
2022/09/10 04:47:54;;;;;;;2.87;0.90;;;;;;;18.60;73.90;99492.63;4436349;32;32965;-85
2022/09/10 04:50:22;;;;;;;2.15;0.80;;;;;;;18.46;74.11;99486.38;4451324;32;33700;-83
2022/09/10 04:53:04;;;;;;;2.15;0.80;;;;;;;18.68;72.74;99495.31;4451598;32;34031;-82
2022/09/10 04:55:32;;;;;;;2.00;0.70;;;;;;;18.86;71.97;99486.72;4452098;32;33252;-82
2022/09/10 04:58:01;;;;;;;4.62;1.10;;;;;;;19.01;71.19;99484.19;4451745;32;33539;-83
2022/09/10 05:00:29;;;;;;;2.80;0.70;;;;;;;18.75;71.58;99485.72;4453771;32;33852;-84
2022/09/10 05:02:57;;;;;;;3.97;0.77;;;;;;;18.49;72.37;99483.81;4454080;32;34158;-80
2022/09/10 05:05:24;;;;;;;1.70;0.70;;;;;;;18.76;71.17;99493.62;4454224;32;34598;-85
2022/09/10 05:07:52;;;;;;;2.55;0.77;;;;;;;18.52;72.27;99482.94;4453984;32;32529;-83
2022/09/10 05:10:22;;;;;;;3.95;0.60;;;;;;;18.53;72.35;99482.97;4453862;32;33829;-84
2022/09/10 05:12:49;;;;;;;2.53;0.80;;;;;;;18.25;73.27;99480.13;4452736;32;33114;-84
2022/09/10 05:15:17;;;;;;;3.97;0.90;;;;;;;18.80;71.82;99482.31;4454395;32;33743;-84
2022/09/10 05:17:46;;;;;;;2.10;0.70;;;;;;;18.90;69.88;99477.97;4454392;32;34146;-80
2022/09/10 05:20:14;;;;;;;4.80;0.85;;;;;;;18.57;71.47;99487.34;4454092;32;34919;-84
2022/09/10 05:22:43;;;;;;;2.35;0.62;;;;;;;18.90;70.74;99485.84;4452332;32;31985;-81
2022/09/10 05:25:11;;;;;;;3.47;0.70;;;;;;;18.95;70.03;99488.50;4454493;32;33936;-80
2022/09/10 05:27:38;;;;;;;1.40;0.73;;;;;;;18.96;70.68;99491.13;4452166;32;33045;-80
2022/09/10 05:30:07;;;;;;;3.62;0.93;;;;;;;18.71;71.22;99495.31;4450854;32;33958;-83
2022/09/10 05:32:35;;;;;;;4.43;0.95;;;;;;;18.66;71.30;99495.31;4451049;32;33283;-81
2022/09/10 05:35:04;;;;;;;1.37;0.73;;;;;;;18.47;72.62;99488.16;4456060;32;32471;-81
2022/09/10 05:37:36;;;;;;;2.25;0.82;;;;;;;18.70;71.48;99487.44;4449276;32;34694;-82
2022/09/10 05:40:08;;;;;;;2.22;0.80;;;;;;;18.65;71.54;99496.16;4450036;32;33176;-79
2022/09/10 05:42:35;;;;;;;3.42;1.10;;;;;;;18.67;71.56;99501.41;4451764;32;33489;-81
2022/09/10 05:45:03;;;;;;;3.90;1.00;;;;;;;18.90;71.18;99501.59;4450920;32;33686;-77
2022/09/10 05:47:33;;;;;;;1.50;0.88;;;;;;;19.01;70.70;99505.19;4451806;32;35337;-82
2022/09/10 05:50:00;;;;;;;1.90;0.90;;;;;;;19.21;69.78;99507.03;4452312;32;33874;-84
2022/09/10 05:52:29;;;;;;;2.67;0.88;;;;;;;19.34;70.12;99507.97;4462255;32;33843;-82
2022/09/10 05:54:58;;;;;;;1.90;0.98;;;;;;;19.47;69.24;99503.63;4451574;32;34681;-80
2022/09/10 05:57:26;;;;;;;3.12;0.80;;;;;;;19.10;70.56;99506.97;4453549;32;34537;-86
2022/09/10 05:59:53;;;;;;;3.17;1.00;;;;;;;19.30;69.73;99501.84;4450540;32;33999;-82
2022/09/10 06:02:22;;;;;;;2.65;0.90;;;;;;;19.21;70.74;99502.66;4452444;32;34172;-79
2022/09/10 06:04:51;;;;;;;2.22;0.80;;;;;;;19.57;69.09;99500.19;4454236;32;33832;-78
2022/09/10 06:07:19;;;;;;;1.70;0.90;;;;;;;19.57;69.17;99505.44;4439400;32;34665;-82
2022/09/10 06:09:47;;;;;;;2.67;0.98;;;;;;;19.47;69.90;99504.53;4449847;32;34096;-81
2022/09/10 06:12:18;;;;;;;1.83;0.98;;;;;;;18.90;72.72;99505.97;4452983;32;33266;-81
2022/09/10 06:14:45;;;;;;;3.83;1.10;;;;;;;19.57;71.04;99506.31;4455324;32;33951;-81
2022/09/10 06:17:13;;;;;;;3.75;1.02;;;;;;;19.47;70.16;99494.03;4454395;32;33726;-79
2022/09/10 06:19:41;;;;;;;6.95;1.10;;;;;;;19.63;69.63;99505.47;4451151;32;34620;-79
2022/09/10 06:22:10;;;;;;;2.83;1.00;;;;;;;19.30;71.77;99500.97;4450761;32;34362;-78
2022/09/10 06:24:38;;;;;;;6.65;1.17;;;;;;;19.73;69.99;99506.41;4450566;32;34676;-80
2022/09/10 06:27:06;;;;;;;2.30;1.08;;;;;;;19.73;69.73;99502.00;4450277;32;33752;-77
2022/09/10 06:29:35;;;;;;;2.72;0.90;;;;;;;19.60;71.04;99500.19;4450647;32;33821;-75
2022/09/10 06:32:03;;;;;;;2.35;1.10;;;;;;;19.83;70.34;99498.53;4451097;32;33529;-80
2022/09/10 06:34:31;;;;;;;2.22;0.90;;;;;;;19.07;72.73;99503.47;4448791;32;33799;-82
2022/09/10 06:37:01;;;;;;;2.67;0.80;;;;;;;18.86;74.55;99503.31;4449211;32;33816;-80
2022/09/10 06:39:31;;;;;;;2.17;1.10;;;;;;;19.69;71.75;99510.72;4452975;32;33211;-78
2022/09/10 06:41:59;;;;;;;4.30;1.10;;;;;;;19.42;71.97;99516.75;4452789;32;33193;-82
2022/09/10 06:44:28;;;;;;;2.10;0.90;;;;;;;19.68;70.83;99503.72;4453368;32;33980;-80
2022/09/10 06:46:55;;;;;;;4.05;1.10;;;;;;;18.82;74.10;99508.56;4449432;32;33973;-81
2022/09/10 06:49:44;;;;;;;2.20;0.95;;;;;;;19.10;72.57;99503.47;4448833;32;34051;-80
2022/09/10 06:52:11;;;;;;;4.20;0.90;;;;;;;19.49;71.03;99512.41;4449069;32;33942;-81
2022/09/10 06:54:39;;;;;;;1.77;1.00;;;;;;;18.83;74.22;99510.28;4450137;32;33753;-83
2022/09/10 06:57:12;;;;;;;1.80;1.05;;;;;;;19.38;72.21;99515.88;4451368;32;34346;-77
2022/09/10 06:59:40;;;;;;;3.75;1.20;;;;;;;19.39;71.25;99515.00;4451606;32;33972;-77
2022/09/10 07:02:08;;;;;;;2.33;1.05;;;;;;;19.21;73.57;99522.78;4452379;32;33857;-77
2022/09/10 07:04:36;;;;;;;3.15;1.30;;;;;;;19.33;73.71;99522.84;4451063;32;33617;-76
2022/09/10 07:07:04;;;;;;;3.17;1.00;;;;;;;19.52;72.57;99526.44;4451716;32;34678;-75
2022/09/10 07:09:31;;;;;;;2.60;1.30;;;;;;;19.46;73.23;99534.28;4449403;32;33488;-80
2022/09/10 07:12:01;;;;;;;4.43;1.40;;;;;;;19.52;73.28;99534.31;4443039;32;34073;-80
2022/09/10 07:14:29;;;;;;;3.58;1.20;;;;;;;19.91;71.62;99537.09;4449481;32;34012;-82
2022/09/10 07:16:57;;;;;;;3.30;1.30;;;;;;;20.04;71.62;99541.53;4443418;32;34768;-78
2022/09/10 07:19:28;;;;;;;3.33;1.10;;;;;;;20.08;71.64;99545.03;4445622;32;33911;-81
2022/09/10 07:21:56;;;;;;;4.18;1.00;;;;;;;20.19;71.08;99552.06;4446095;32;34042;-81
2022/09/10 07:24:23;;;;;;;6.18;2.92;;;;;;;20.09;70.48;99547.69;4442924;32;34266;-81
2022/09/10 07:26:52;;;;;;;5.05;1.83;;;;;;;20.70;69.25;99541.59;4451674;32;33747;-80
2022/09/10 07:29:22;;;;;;;3.20;1.55;;;;;;;20.76;68.92;99543.34;4452665;32;33841;-80
2022/09/10 07:31:51;;;;;;;4.68;1.60;;;;;;;20.83;68.44;99542.47;4454037;32;34074;-80
2022/09/10 07:34:19;;;;;;;6.10;1.40;;;;;;;21.10;67.56;99548.59;4453665;32;33867;-80
2022/09/10 07:36:46;;;;;;;5.15;1.60;;;;;;;21.10;67.49;99548.59;4453826;32;33737;-80
2022/09/10 07:39:14;;;;;;;2.97;1.40;;;;;;;21.21;66.58;99555.59;4454122;32;33675;-80
2022/09/10 07:41:42;;;;;;;9.00;1.45;;;;;;;21.45;66.23;99566.09;4454256;32;33248;-81
2022/09/10 07:44:10;;;;;;;4.05;1.33;;;;;;;21.49;65.60;99565.19;4453709;32;34050;-80
2022/09/10 07:46:38;;;;;;;4.35;1.45;;;;;;;21.11;67.70;99564.41;4454090;32;33558;-81
2022/09/10 07:49:08;;;;;;;4.57;1.55;;;;;;;21.44;67.57;99566.97;4453220;32;33919;-80
2022/09/10 07:51:37;;;;;;;3.15;1.30;;;;;;;21.57;67.70;99579.22;4453751;32;34229;-80
2022/09/10 07:54:04;;;;;;;4.40;1.33;;;;;;;21.45;67.76;99571.34;4452267;32;33658;-81
2022/09/10 07:56:33;;;;;;;5.93;2.08;;;;;;;21.32;68.55;99568.72;4454348;32;33782;-82
2022/09/10 07:59:01;;;;;;;8.73;2.62;;;;;;;21.09;71.32;99560.84;4453052;32;34232;-81
2022/09/10 08:01:30;;;;;;;8.05;3.50;;;;;;;19.37;76.76;99571.00;4453186;32;34071;-82
2022/09/10 08:04:00;;;;;;;6.37;2.90;;;;;;;19.98;75.86;99567.81;4454204;32;33884;-81
2022/09/10 08:06:27;;;;;;;4.05;1.55;;;;;;;20.67;73.44;99567.03;4454105;32;33864;-80
2022/09/10 08:08:55;;;;;;;5.82;1.23;;;;;;;20.46;72.27;99568.78;4454132;32;34383;-78
2022/09/10 08:11:24;;;;;;;3.22;1.25;;;;;;;20.73;68.61;99567.06;4452571;32;32974;-81
2022/09/10 08:13:52;;;;;;;2.78;1.00;;;;;;;20.26;70.65;99570.47;4453615;32;33872;-79
2022/09/10 08:16:22;;;;;;;2.72;1.25;;;;;;;20.15;69.58;99573.97;4453629;32;33769;-78
2022/09/10 08:18:50;;;;;;;4.00;1.17;;;;;;;19.99;71.40;99580.06;4452316;32;34172;-80
2022/09/10 08:21:18;;;;;;;2.62;1.37;;;;;;;20.47;70.86;99577.53;4452770;32;33629;-79
2022/09/10 08:23:51;;;;;;;3.58;1.40;;;;;;;20.93;69.70;99578.44;4452573;32;33780;-80
2022/09/10 08:26:22;;;;;;;2.28;1.05;;;;;;;20.83;69.41;99574.06;4453626;32;34534;-80
2022/09/10 08:28:51;;;;;;;4.97;1.30;;;;;;;20.99;65.69;99570.53;4452755;32;34566;-80
2022/09/10 08:31:19;;;;;;;2.72;1.17;;;;;;;20.85;66.64;99567.03;4455072;32;33327;-81
2022/09/10 08:33:49;;;;;;;1.98;1.27;;;;;;;20.59;67.99;99569.63;4454597;32;33590;-80
2022/09/10 08:36:17;;;;;;;2.03;1.00;;;;;;;20.50;66.68;99570.53;4455434;32;33957;-78
2022/09/10 08:38:45;;;;;;;1.65;0.90;;;;;;;20.43;66.95;99581.91;4455320;32;34117;-79
2022/09/10 08:41:31;;;;;;;2.42;0.90;;;;;;;20.29;67.17;99578.41;4455695;32;33611;-80
2022/09/10 08:44:02;;;;;;;1.90;0.80;;;;;;;20.04;68.38;99591.47;4454539;32;34411;-80
2022/09/10 08:46:34;;;;;;;2.28;0.82;;;;;;;20.48;65.42;99580.16;4454863;32;33946;-79
2022/09/10 08:49:08;;;;;;;1.90;0.80;;;;;;;20.56;65.92;99580.19;4447879;32;33684;-80
2022/09/10 08:51:47;;;;;;;2.72;0.68;;;;;;;20.79;64.93;99582.84;4455381;32;33159;-78
2022/09/10 08:54:24;;;;;;;2.55;0.82;;;;;;;20.66;62.44;99570.56;4454591;32;34087;-79
2022/09/10 08:56:54;;;;;;;2.42;1.12;;;;;;;20.56;65.05;99585.44;4455592;32;33659;-81
2022/09/10 08:59:32;;;;;;;1.58;0.80;;;;;;;20.85;63.37;99577.56;4454134;32;34205;-79
2022/09/10 09:02:21;;;;;;;0.90;0.40;;;;;;;20.71;62.77;99580.22;4454212;32;34018;-80
2022/09/10 09:05:21;;;;;;;1.75;0.52;;;;;;;20.52;62.65;99584.56;4443897;32;34313;-79
2022/09/10 09:07:50;;;;;;;1.30;0.70;;;;;;;20.77;61.60;99587.25;4455163;32;33640;-81
2022/09/10 09:10:24;;;;;;;2.30;0.82;;;;;;;21.17;62.01;99584.53;4453977;32;33865;-79
2022/09/10 09:13:26;;;;;;;1.83;0.88;;;;;;;20.98;64.21;99584.59;4455591;32;33350;-79
2022/09/10 09:16:03;;;;;;;2.15;0.70;;;;;;;21.66;62.10;99579.19;4455145;32;33690;-81
2022/09/10 09:18:34;;;;;;;2.83;0.65;;;;;;;20.59;64.39;99577.53;4455466;32;34962;-77
2022/09/10 09:21:14;;;;;;;2.47;1.02;;;;;;;21.30;61.15;99575.75;4455127;32;33995;-80
2022/09/10 09:23:54;;;;;;;1.83;0.60;;;;;;;20.61;63.71;99589.87;4455531;32;33742;-80
2022/09/10 09:26:44;;;;;;;1.00;0.60;;;;;;;20.89;63.02;99584.59;4454285;32;33530;-80
2022/09/10 09:29:25;;;;;;;2.12;0.80;;;;;;;21.56;60.18;99582.75;4455330;32;33597;-79
2022/09/10 09:31:57;;;;;;;1.55;0.43;;;;;;;21.85;60.71;99584.41;4454247;32;34847;-78
2022/09/10 09:34:27;;;;;;;3.78;0.90;;;;;;;21.98;57.66;99581.69;4454004;32;33688;-78
2022/09/10 09:36:57;;;;;;;0.77;0.47;;;;;;;22.33;56.40;99587.69;4455431;32;33800;-79
2022/09/10 09:39:29;;;;;;;2.83;0.45;;;;;;;22.35;55.73;99585.91;4454181;32;34593;-81
2022/09/10 09:42:13;;;;;;;2.05;0.70;;;;;;;22.41;55.41;99577.94;4453439;32;34682;-82
2022/09/10 09:44:59;;;;;;;3.70;0.80;;;;;;;21.61;57.37;99580.94;4455388;32;33912;-80
2022/09/10 09:47:27;;;;;;;1.55;0.75;;;;;;;21.38;58.19;99574.00;4447402;32;33448;-82
2022/09/10 09:49:55;;;;;;;2.42;0.90;;;;;;;22.35;56.52;99567.44;4452947;32;34732;-79
2022/09/10 09:52:23;;;;;;;1.00;0.50;;;;;;;23.10;55.15;99565.94;4455017;32;33836;-81
2022/09/10 09:54:58;;;;;;;3.60;0.75;;;;;;;22.92;53.67;99561.69;4454952;32;33715;-82
2022/09/10 09:57:42;;;;;;;0.77;0.40;;;;;;;22.94;54.09;99560.75;4455091;32;34926;-79
2022/09/10 10:00:34;;;;;;;0.75;0.40;;;;;;;23.55;52.42;99553.13;4454868;32;33831;-80
2022/09/10 10:03:06;;;;;;;2.00;1.10;;;;;;;23.17;52.42;99551.78;4453816;32;34705;-81
2022/09/10 10:05:34;;;;;;;1.33;0.60;;;;;;;22.23;53.74;99551.63;4453845;32;31861;-80
2022/09/10 10:08:02;;;;;;;2.15;0.32;;;;;;;22.64;53.65;99547.84;4454824;32;33731;-79
2022/09/10 10:10:30;;;;;;;1.52;0.50;;;;;;;22.99;53.22;99544.88;4454569;32;34293;-81
2022/09/10 10:12:57;;;;;;;2.55;0.35;;;;;;;21.82;54.82;99548.34;4453577;32;33940;-80
2022/09/10 10:15:37;;;;;;;0.98;0.50;;;;;;;22.61;52.00;99532.91;4453931;32;34191;-79
2022/09/10 10:18:30;;;;;;;1.83;0.50;;;;;;;22.94;51.95;99539.62;4439902;32;34206;-82
2022/09/10 10:21:22;;;;;;;1.70;0.50;;;;;;;22.05;53.46;99545.59;4449385;32;34444;-81
2022/09/10 10:23:50;;;;;;;1.87;0.55;;;;;;;22.23;53.03;99536.66;4440473;32;34244;-80
2022/09/10 10:26:20;;;;;;;1.35;0.50;;;;;;;22.09;54.27;99542.03;4453311;32;33534;-80
2022/09/10 10:28:53;;;;;;;1.00;0.52;;;;;;;22.86;52.03;99530.06;4454735;32;33758;-81
2022/09/10 10:31:22;;;;;;;2.20;0.55;;;;;;;22.96;51.55;99534.34;4454767;32;33742;-81
2022/09/10 10:34:13;;;;;;;2.40;0.80;;;;;;;22.35;53.29;99527.84;4453476;32;34502;-82
2022/09/10 10:37:00;;;;;;;1.70;0.93;;;;;;;22.50;51.94;99533.00;4453704;32;33452;-79
2022/09/10 10:40:01;;;;;;;2.33;1.05;;;;;;;22.97;51.22;99529.06;4454608;32;33175;-83
2022/09/10 10:42:46;;;;;;;4.47;1.67;;;;;;;22.92;50.00;99525.56;4444518;32;34214;-83
2022/09/10 10:45:29;;;;;;;4.72;2.65;;;;;;;23.50;47.07;99521.44;4455002;32;33717;-82
2022/09/10 10:48:11;;;;;;;2.15;0.93;;;;;;;23.53;46.08;99513.47;4454848;32;34121;-79
2022/09/10 10:50:57;;;;;;;0.62;0.40;;;;;;;23.64;47.63;99516.00;4453703;32;33928;-81
2022/09/10 10:53:43;;;;;;;5.75;2.83;;;;;;;24.05;45.75;99522.50;4453570;32;33756;-81
2022/09/10 10:56:19;;;;;;;1.05;0.60;;;;;;;24.23;46.76;99521.34;4442685;32;33965;-80
2022/09/10 10:58:58;;;;;;;1.42;0.40;;;;;;;24.12;45.88;99516.19;4453399;32;33444;-82
2022/09/10 11:01:28;;;;;;;3.35;1.58;;;;;;;23.60;46.02;99523.97;4454859;32;33991;-81
2022/09/10 11:04:21;;;;;;;3.47;0.68;;;;;;;24.64;44.03;99521.59;4453381;32;34047;-81
2022/09/10 11:06:57;;;;;;;1.73;0.65;;;;;;;24.36;45.61;99516.75;4454526;32;34557;-80
2022/09/10 11:09:27;;;;;;;1.80;0.40;;;;;;;25.10;43.13;99512.81;4454423;32;33315;-79
2022/09/10 11:11:56;;;;;;;2.03;0.43;;;;;;;24.70;41.82;99516.19;4453628;32;34393;-83
2022/09/10 11:15:03;;;;;;;3.00;0.50;;;;;;;24.01;44.29;99525.19;4453423;32;34673;-82
2022/09/10 11:17:38;;;;;;;5.07;2.05;;;;;;;24.58;42.53;99521.72;4416065;32;33865;-81
2022/09/10 11:20:17;;;;;;;2.55;0.90;;;;;;;24.70;44.07;99521.50;4453625;32;33680;-81
2022/09/10 11:23:20;;;;;;;0.60;0.25;;;;;;;24.87;43.03;99522.06;4454594;32;34552;-83
2022/09/10 11:26:04;;;;;;;3.00;1.00;;;;;;;24.34;42.98;99519.41;4453209;32;33654;-81
2022/09/10 11:28:40;;;;;;;2.95;1.00;;;;;;;24.16;44.15;99529.41;4454383;32;33939;-79
2022/09/10 11:31:20;;;;;;;2.47;0.93;;;;;;;24.01;44.58;99531.38;4453108;32;33384;-79
2022/09/10 11:33:58;;;;;;;3.58;1.40;;;;;;;24.12;42.91;99534.72;4453455;32;34018;-80
2022/09/10 11:36:30;;;;;;;1.87;0.40;;;;;;;24.32;44.19;99520.34;4453242;32;34445;-81
2022/09/10 11:39:12;;;;;;;0.93;0.55;;;;;;;24.41;43.24;99511.38;4453127;32;34040;-81
2022/09/10 11:41:41;;;;;;;2.03;0.90;;;;;;;24.46;44.32;99518.34;4453213;32;33394;-81
2022/09/10 11:44:15;;;;;;;1.80;0.57;;;;;;;24.34;44.21;99505.31;4454421;32;33901;-82
2022/09/10 11:47:10;;;;;;;4.33;0.50;;;;;;;24.44;43.63;99514.84;4454187;32;33597;-82
2022/09/10 11:49:53;;;;;;;1.23;0.60;;;;;;;23.97;44.92;99505.87;4441249;32;33884;-81
2022/09/10 11:52:21;;;;;;;3.42;1.20;;;;;;;24.26;43.06;99508.06;4454117;32;34126;-82
2022/09/10 11:54:48;;;;;;;0.85;0.30;;;;;;;24.92;41.36;99501.66;4453990;32;33647;-84
2022/09/10 11:57:26;;;;;;;1.85;0.90;;;;;;;24.32;41.48;99504.47;4453988;32;34696;-83